sensor_id;sensor_type;location;lat;lon;timestamp;P1;durP1;ratioP1;P2;durP2;ratioP2
75737;SDS011;64356;45.638;13.764;2023-05-31T00:02:24;9.05;;;5.43;;
75737;SDS011;64356;45.638;13.764;2023-05-31T00:04:50;10.73;;;5.53;;
75737;SDS011;64356;45.638;13.764;2023-05-31T00:07:15;6.70;;;4.70;;
75737;SDS011;64356;45.638;13.764;2023-05-31T00:09:41;8.90;;;5.15;;
75737;SDS011;64356;45.638;13.764;2023-05-31T00:12:07;8.98;;;4.95;;
75737;SDS011;64356;45.638;13.764;2023-05-31T00:14:33;11.20;;;5.60;;
75737;SDS011;64356;45.638;13.764;2023-05-31T00:16:58;19.15;;;5.03;;
75737;SDS011;64356;45.638;13.764;2023-05-31T00:19:24;9.52;;;4.75;;
75737;SDS011;64356;45.638;13.764;2023-05-31T00:21:50;10.73;;;5.70;;
75737;SDS011;64356;45.638;13.764;2023-05-31T00:24:16;12.73;;;4.75;;
75737;SDS011;64356;45.638;13.764;2023-05-31T00:26:41;9.65;;;5.35;;
75737;SDS011;64356;45.638;13.764;2023-05-31T00:29:07;7.40;;;4.80;;
75737;SDS011;64356;45.638;13.764;2023-05-31T00:31:33;8.18;;;5.13;;
75737;SDS011;64356;45.638;13.764;2023-05-31T00:33:58;10.10;;;4.90;;
75737;SDS011;64356;45.638;13.764;2023-05-31T00:36:24;9.63;;;5.25;;
75737;SDS011;64356;45.638;13.764;2023-05-31T00:38:50;7.25;;;4.53;;
75737;SDS011;64356;45.638;13.764;2023-05-31T00:41:15;6.00;;;4.60;;
75737;SDS011;64356;45.638;13.764;2023-05-31T00:43:42;12.07;;;5.15;;
75737;SDS011;64356;45.638;13.764;2023-05-31T00:46:09;9.07;;;4.43;;
75737;SDS011;64356;45.638;13.764;2023-05-31T00:48:44;9.05;;;4.78;;
75737;SDS011;64356;45.638;13.764;2023-05-31T00:51:10;8.32;;;4.82;;
75737;SDS011;64356;45.638;13.764;2023-05-31T00:53:37;11.43;;;5.53;;
75737;SDS011;64356;45.638;13.764;2023-05-31T00:56:03;5.57;;;4.70;;
75737;SDS011;64356;45.638;13.764;2023-05-31T00:58:29;9.85;;;5.38;;
75737;SDS011;64356;45.638;13.764;2023-05-31T01:00:59;7.00;;;5.07;;
75737;SDS011;64356;45.638;13.764;2023-05-31T01:03:25;9.15;;;5.03;;
75737;SDS011;64356;45.638;13.764;2023-05-31T01:05:51;11.75;;;5.43;;
75737;SDS011;64356;45.638;13.764;2023-05-31T01:08:17;6.25;;;5.00;;
75737;SDS011;64356;45.638;13.764;2023-05-31T01:10:44;6.03;;;4.80;;
75737;SDS011;64356;45.638;13.764;2023-05-31T01:18:37;7.63;;;4.43;;
75737;SDS011;64356;45.638;13.764;2023-05-31T01:21:09;6.53;;;4.53;;
75737;SDS011;64356;45.638;13.764;2023-05-31T01:28:59;8.13;;;5.10;;
75737;SDS011;64356;45.638;13.764;2023-05-31T01:31:29;7.97;;;4.60;;
75737;SDS011;64356;45.638;13.764;2023-05-31T01:33:56;6.18;;;4.57;;
75737;SDS011;64356;45.638;13.764;2023-05-31T01:36:23;7.95;;;5.05;;
75737;SDS011;64356;45.638;13.764;2023-05-31T01:38:49;9.27;;;4.70;;
75737;SDS011;64356;45.638;13.764;2023-05-31T01:41:14;8.75;;;4.97;;
75737;SDS011;64356;45.638;13.764;2023-05-31T01:43:41;8.10;;;5.28;;
75737;SDS011;64356;45.638;13.764;2023-05-31T01:46:10;9.30;;;4.93;;
75737;SDS011;64356;45.638;13.764;2023-05-31T01:48:38;10.00;;;4.80;;
75737;SDS011;64356;45.638;13.764;2023-05-31T01:51:05;8.13;;;4.60;;
75737;SDS011;64356;45.638;13.764;2023-05-31T01:53:34;7.45;;;4.93;;
75737;SDS011;64356;45.638;13.764;2023-05-31T01:56:01;7.00;;;4.68;;
75737;SDS011;64356;45.638;13.764;2023-05-31T01:58:28;8.75;;;5.28;;
75737;SDS011;64356;45.638;13.764;2023-05-31T02:00:55;8.93;;;4.95;;
75737;SDS011;64356;45.638;13.764;2023-05-31T02:03:22;8.82;;;5.00;;
75737;SDS011;64356;45.638;13.764;2023-05-31T02:05:54;6.40;;;5.00;;
75737;SDS011;64356;45.638;13.764;2023-05-31T02:08:20;6.55;;;5.00;;
75737;SDS011;64356;45.638;13.764;2023-05-31T02:10:47;11.38;;;4.80;;
75737;SDS011;64356;45.638;13.764;2023-05-31T02:13:12;9.93;;;5.78;;
75737;SDS011;64356;45.638;13.764;2023-05-31T02:15:38;8.27;;;4.68;;
75737;SDS011;64356;45.638;13.764;2023-05-31T02:18:06;7.38;;;4.90;;
75737;SDS011;64356;45.638;13.764;2023-05-31T02:20:32;7.60;;;4.97;;
75737;SDS011;64356;45.638;13.764;2023-05-31T02:22:58;10.30;;;4.53;;
75737;SDS011;64356;45.638;13.764;2023-05-31T02:25:24;9.95;;;4.95;;
75737;SDS011;64356;45.638;13.764;2023-05-31T02:27:50;5.80;;;4.50;;
75737;SDS011;64356;45.638;13.764;2023-05-31T02:30:16;9.60;;;4.47;;
75737;SDS011;64356;45.638;13.764;2023-05-31T02:32:42;6.35;;;4.60;;
75737;SDS011;64356;45.638;13.764;2023-05-31T02:35:09;6.25;;;4.53;;
75737;SDS011;64356;45.638;13.764;2023-05-31T02:37:36;6.50;;;4.45;;
75737;SDS011;64356;45.638;13.764;2023-05-31T02:40:03;6.93;;;4.68;;
75737;SDS011;64356;45.638;13.764;2023-05-31T02:42:32;7.10;;;4.38;;
75737;SDS011;64356;45.638;13.764;2023-05-31T02:44:59;6.50;;;4.60;;
75737;SDS011;64356;45.638;13.764;2023-05-31T02:47:25;6.47;;;4.47;;
75737;SDS011;64356;45.638;13.764;2023-05-31T02:49:50;8.70;;;4.10;;
75737;SDS011;64356;45.638;13.764;2023-05-31T02:52:16;10.20;;;4.65;;
75737;SDS011;64356;45.638;13.764;2023-05-31T02:54:42;7.32;;;4.47;;
75737;SDS011;64356;45.638;13.764;2023-05-31T02:57:07;8.55;;;4.70;;
75737;SDS011;64356;45.638;13.764;2023-05-31T02:59:33;5.10;;;4.10;;
75737;SDS011;64356;45.638;13.764;2023-05-31T03:01:59;9.48;;;4.47;;
75737;SDS011;64356;45.638;13.764;2023-05-31T03:04:25;7.30;;;4.10;;
75737;SDS011;64356;45.638;13.764;2023-05-31T03:06:51;13.77;;;4.45;;
75737;SDS011;64356;45.638;13.764;2023-05-31T03:09:17;7.30;;;4.80;;
75737;SDS011;64356;45.638;13.764;2023-05-31T03:11:43;6.18;;;4.15;;
75737;SDS011;64356;45.638;13.764;2023-05-31T03:14:10;4.70;;;3.67;;
75737;SDS011;64356;45.638;13.764;2023-05-31T03:16:36;4.40;;;4.00;;
75737;SDS011;64356;45.638;13.764;2023-05-31T03:19:02;7.55;;;3.97;;
75737;SDS011;64356;45.638;13.764;2023-05-31T03:21:28;6.63;;;3.97;;
75737;SDS011;64356;45.638;13.764;2023-05-31T03:23:54;6.85;;;3.58;;
75737;SDS011;64356;45.638;13.764;2023-05-31T03:26:19;5.28;;;3.80;;
75737;SDS011;64356;45.638;13.764;2023-05-31T03:28:45;7.35;;;4.20;;
75737;SDS011;64356;45.638;13.764;2023-05-31T03:31:11;6.15;;;4.22;;
75737;SDS011;64356;45.638;13.764;2023-05-31T03:33:36;7.90;;;3.80;;
75737;SDS011;64356;45.638;13.764;2023-05-31T03:36:02;4.55;;;3.70;;
75737;SDS011;64356;45.638;13.764;2023-05-31T03:38:29;8.05;;;3.83;;
75737;SDS011;64356;45.638;13.764;2023-05-31T03:40:55;5.03;;;3.42;;
75737;SDS011;64356;45.638;13.764;2023-05-31T03:43:21;8.40;;;3.53;;
75737;SDS011;64356;45.638;13.764;2023-05-31T03:45:46;10.23;;;4.13;;
75737;SDS011;64356;45.638;13.764;2023-05-31T03:48:12;6.57;;;3.72;;
75737;SDS011;64356;45.638;13.764;2023-05-31T03:50:43;8.15;;;4.15;;
75737;SDS011;64356;45.638;13.764;2023-05-31T03:53:09;9.88;;;4.15;;
75737;SDS011;64356;45.638;13.764;2023-05-31T03:55:35;7.97;;;3.50;;
75737;SDS011;64356;45.638;13.764;2023-05-31T03:58:01;4.75;;;3.17;;
75737;SDS011;64356;45.638;13.764;2023-05-31T04:00:27;5.47;;;3.78;;
75737;SDS011;64356;45.638;13.764;2023-05-31T04:02:53;6.18;;;3.83;;
75737;SDS011;64356;45.638;13.764;2023-05-31T04:05:19;8.98;;;3.60;;
75737;SDS011;64356;45.638;13.764;2023-05-31T04:07:45;4.97;;;3.15;;
75737;SDS011;64356;45.638;13.764;2023-05-31T04:10:11;5.93;;;3.38;;
75737;SDS011;64356;45.638;13.764;2023-05-31T04:12:36;5.75;;;3.22;;
75737;SDS011;64356;45.638;13.764;2023-05-31T04:15:02;7.43;;;3.10;;
75737;SDS011;64356;45.638;13.764;2023-05-31T04:17:28;6.13;;;3.38;;
75737;SDS011;64356;45.638;13.764;2023-05-31T04:19:54;8.98;;;4.85;;
75737;SDS011;64356;45.638;13.764;2023-05-31T04:22:20;7.47;;;3.65;;
75737;SDS011;64356;45.638;13.764;2023-05-31T04:24:47;6.35;;;3.35;;
75737;SDS011;64356;45.638;13.764;2023-05-31T04:27:13;6.47;;;3.45;;
75737;SDS011;64356;45.638;13.764;2023-05-31T04:29:43;6.85;;;3.45;;
75737;SDS011;64356;45.638;13.764;2023-05-31T04:32:11;10.73;;;3.13;;
75737;SDS011;64356;45.638;13.764;2023-05-31T04:34:40;7.38;;;3.47;;
75737;SDS011;64356;45.638;13.764;2023-05-31T04:37:06;7.20;;;3.50;;
75737;SDS011;64356;45.638;13.764;2023-05-31T04:39:32;9.68;;;3.05;;
75737;SDS011;64356;45.638;13.764;2023-05-31T04:41:58;6.97;;;3.83;;
75737;SDS011;64356;45.638;13.764;2023-05-31T04:44:27;10.55;;;3.63;;
75737;SDS011;64356;45.638;13.764;2023-05-31T04:46:53;8.90;;;3.65;;
75737;SDS011;64356;45.638;13.764;2023-05-31T04:49:19;4.70;;;3.08;;
75737;SDS011;64356;45.638;13.764;2023-05-31T04:51:44;4.57;;;3.30;;
75737;SDS011;64356;45.638;13.764;2023-05-31T04:54:10;5.25;;;3.22;;
75737;SDS011;64356;45.638;13.764;2023-05-31T04:56:36;16.75;;;3.70;;
75737;SDS011;64356;45.638;13.764;2023-05-31T04:59:01;8.65;;;3.30;;
75737;SDS011;64356;45.638;13.764;2023-05-31T05:01:27;7.93;;;3.67;;
75737;SDS011;64356;45.638;13.764;2023-05-31T05:03:53;11.55;;;3.33;;
75737;SDS011;64356;45.638;13.764;2023-05-31T05:06:19;7.97;;;3.53;;
75737;SDS011;64356;45.638;13.764;2023-05-31T05:08:46;7.43;;;3.28;;
75737;SDS011;64356;45.638;13.764;2023-05-31T05:11:11;8.18;;;4.07;;
75737;SDS011;64356;45.638;13.764;2023-05-31T05:13:37;6.97;;;3.72;;
75737;SDS011;64356;45.638;13.764;2023-05-31T05:16:03;9.80;;;3.28;;
75737;SDS011;64356;45.638;13.764;2023-05-31T05:18:30;7.22;;;3.45;;
75737;SDS011;64356;45.638;13.764;2023-05-31T05:20:56;8.88;;;3.88;;
75737;SDS011;64356;45.638;13.764;2023-05-31T05:23:22;8.38;;;3.67;;
75737;SDS011;64356;45.638;13.764;2023-05-31T05:25:48;4.47;;;2.85;;
75737;SDS011;64356;45.638;13.764;2023-05-31T05:28:14;5.35;;;3.13;;
75737;SDS011;64356;45.638;13.764;2023-05-31T05:30:40;5.55;;;3.22;;
75737;SDS011;64356;45.638;13.764;2023-05-31T05:33:06;12.77;;;3.72;;
75737;SDS011;64356;45.638;13.764;2023-05-31T05:35:32;13.88;;;3.13;;
75737;SDS011;64356;45.638;13.764;2023-05-31T05:37:58;4.68;;;3.00;;
75737;SDS011;64356;45.638;13.764;2023-05-31T05:40:25;15.50;;;3.67;;
75737;SDS011;64356;45.638;13.764;2023-05-31T05:42:51;7.00;;;3.30;;
75737;SDS011;64356;45.638;13.764;2023-05-31T05:45:18;5.32;;;3.47;;
75737;SDS011;64356;45.638;13.764;2023-05-31T05:47:43;5.40;;;3.10;;
75737;SDS011;64356;45.638;13.764;2023-05-31T05:50:10;6.82;;;3.80;;
75737;SDS011;64356;45.638;13.764;2023-05-31T05:52:37;11.50;;;3.35;;
75737;SDS011;64356;45.638;13.764;2023-05-31T05:55:04;15.93;;;3.97;;
75737;SDS011;64356;45.638;13.764;2023-05-31T05:57:29;27.50;;;3.92;;
75737;SDS011;64356;45.638;13.764;2023-05-31T05:59:56;16.75;;;3.95;;
75737;SDS011;64356;45.638;13.764;2023-05-31T06:02:22;11.73;;;3.75;;
75737;SDS011;64356;45.638;13.764;2023-05-31T06:04:48;12.85;;;3.30;;
75737;SDS011;64356;45.638;13.764;2023-05-31T06:07:16;17.45;;;3.53;;
75737;SDS011;64356;45.638;13.764;2023-05-31T06:09:42;6.22;;;3.20;;
75737;SDS011;64356;45.638;13.764;2023-05-31T06:12:08;16.63;;;3.38;;
75737;SDS011;64356;45.638;13.764;2023-05-31T06:14:34;9.00;;;3.97;;
75737;SDS011;64356;45.638;13.764;2023-05-31T06:17:00;15.27;;;3.58;;
75737;SDS011;64356;45.638;13.764;2023-05-31T06:19:26;9.70;;;4.10;;
75737;SDS011;64356;45.638;13.764;2023-05-31T06:21:51;12.77;;;3.78;;
75737;SDS011;64356;45.638;13.764;2023-05-31T06:24:19;8.85;;;3.55;;
75737;SDS011;64356;45.638;13.764;2023-05-31T06:26:44;13.20;;;3.70;;
75737;SDS011;64356;45.638;13.764;2023-05-31T06:29:10;6.60;;;3.50;;
75737;SDS011;64356;45.638;13.764;2023-05-31T06:31:36;15.20;;;3.78;;
75737;SDS011;64356;45.638;13.764;2023-05-31T06:34:04;12.43;;;3.70;;
75737;SDS011;64356;45.638;13.764;2023-05-31T06:36:30;12.73;;;4.15;;
75737;SDS011;64356;45.638;13.764;2023-05-31T06:38:56;11.48;;;3.80;;
75737;SDS011;64356;45.638;13.764;2023-05-31T06:41:22;9.82;;;3.97;;
75737;SDS011;64356;45.638;13.764;2023-05-31T06:43:49;13.40;;;3.80;;
75737;SDS011;64356;45.638;13.764;2023-05-31T06:46:14;10.88;;;3.72;;
75737;SDS011;64356;45.638;13.764;2023-05-31T06:48:40;11.95;;;3.83;;
75737;SDS011;64356;45.638;13.764;2023-05-31T06:51:06;16.63;;;4.32;;
75737;SDS011;64356;45.638;13.764;2023-05-31T06:53:31;27.58;;;3.92;;
75737;SDS011;64356;45.638;13.764;2023-05-31T06:55:57;11.75;;;4.47;;
75737;SDS011;64356;45.638;13.764;2023-05-31T06:58:23;23.23;;;3.65;;
75737;SDS011;64356;45.638;13.764;2023-05-31T07:00:49;22.42;;;4.00;;
75737;SDS011;64356;45.638;13.764;2023-05-31T07:03:14;9.68;;;4.03;;
75737;SDS011;64356;45.638;13.764;2023-05-31T07:05:40;17.33;;;3.92;;
75737;SDS011;64356;45.638;13.764;2023-05-31T07:08:08;11.95;;;4.78;;
75737;SDS011;64356;45.638;13.764;2023-05-31T07:10:35;17.60;;;3.60;;
75737;SDS011;64356;45.638;13.764;2023-05-31T07:13:01;11.18;;;3.35;;
75737;SDS011;64356;45.638;13.764;2023-05-31T07:15:26;5.85;;;3.33;;
75737;SDS011;64356;45.638;13.764;2023-05-31T07:17:53;6.47;;;3.30;;
75737;SDS011;64356;45.638;13.764;2023-05-31T07:20:19;10.40;;;4.18;;
75737;SDS011;64356;45.638;13.764;2023-05-31T07:22:44;16.25;;;4.07;;
75737;SDS011;64356;45.638;13.764;2023-05-31T07:25:10;9.77;;;4.18;;
75737;SDS011;64356;45.638;13.764;2023-05-31T07:27:36;9.25;;;3.45;;
75737;SDS011;64356;45.638;13.764;2023-05-31T07:30:02;10.05;;;3.17;;
75737;SDS011;64356;45.638;13.764;2023-05-31T07:32:28;11.57;;;3.60;;
75737;SDS011;64356;45.638;13.764;2023-05-31T07:34:54;19.58;;;4.07;;
75737;SDS011;64356;45.638;13.764;2023-05-31T07:37:19;8.65;;;3.30;;
75737;SDS011;64356;45.638;13.764;2023-05-31T07:39:45;11.32;;;3.88;;
75737;SDS011;64356;45.638;13.764;2023-05-31T07:42:11;10.70;;;3.97;;
75737;SDS011;64356;45.638;13.764;2023-05-31T07:44:38;12.52;;;3.78;;
75737;SDS011;64356;45.638;13.764;2023-05-31T07:47:04;17.00;;;4.18;;
75737;SDS011;64356;45.638;13.764;2023-05-31T07:49:30;8.27;;;3.10;;
75737;SDS011;64356;45.638;13.764;2023-05-31T07:51:55;19.73;;;4.47;;
75737;SDS011;64356;45.638;13.764;2023-05-31T07:54:21;21.90;;;4.18;;
75737;SDS011;64356;45.638;13.764;2023-05-31T07:56:47;17.15;;;4.13;;
75737;SDS011;64356;45.638;13.764;2023-05-31T07:59:13;15.75;;;4.05;;
75737;SDS011;64356;45.638;13.764;2023-05-31T08:01:38;37.15;;;4.93;;
75737;SDS011;64356;45.638;13.764;2023-05-31T08:04:07;27.98;;;4.53;;
75737;SDS011;64356;45.638;13.764;2023-05-31T08:06:34;34.17;;;5.38;;
75737;SDS011;64356;45.638;13.764;2023-05-31T08:09:01;17.50;;;4.15;;
75737;SDS011;64356;45.638;13.764;2023-05-31T08:11:33;16.77;;;4.28;;
75737;SDS011;64356;45.638;13.764;2023-05-31T08:14:04;13.05;;;3.90;;
75737;SDS011;64356;45.638;13.764;2023-05-31T08:16:31;17.38;;;3.80;;
75737;SDS011;64356;45.638;13.764;2023-05-31T08:18:58;13.98;;;3.80;;
75737;SDS011;64356;45.638;13.764;2023-05-31T08:21:24;14.32;;;4.15;;
75737;SDS011;64356;45.638;13.764;2023-05-31T08:23:49;18.92;;;4.38;;
75737;SDS011;64356;45.638;13.764;2023-05-31T08:26:15;13.35;;;4.00;;
75737;SDS011;64356;45.638;13.764;2023-05-31T08:28:41;15.18;;;4.13;;
75737;SDS011;64356;45.638;13.764;2023-05-31T08:31:07;11.77;;;4.00;;
75737;SDS011;64356;45.638;13.764;2023-05-31T08:33:33;12.98;;;4.18;;
75737;SDS011;64356;45.638;13.764;2023-05-31T08:35:59;15.80;;;4.22;;
75737;SDS011;64356;45.638;13.764;2023-05-31T08:38:29;16.23;;;3.55;;
75737;SDS011;64356;45.638;13.764;2023-05-31T08:40:56;11.05;;;4.18;;
75737;SDS011;64356;45.638;13.764;2023-05-31T08:43:24;13.48;;;4.13;;
75737;SDS011;64356;45.638;13.764;2023-05-31T08:45:52;10.48;;;5.15;;
75737;SDS011;64356;45.638;13.764;2023-05-31T08:50:57;11.40;;;4.80;;
75737;SDS011;64356;45.638;13.764;2023-05-31T08:53:25;13.55;;;4.30;;
75737;SDS011;64356;45.638;13.764;2023-05-31T08:55:51;35.80;;;4.78;;
75737;SDS011;64356;45.638;13.764;2023-05-31T08:58:19;33.40;;;4.93;;
75737;SDS011;64356;45.638;13.764;2023-05-31T09:00:45;32.03;;;6.07;;
75737;SDS011;64356;45.638;13.764;2023-05-31T09:03:11;19.15;;;5.40;;
75737;SDS011;64356;45.638;13.764;2023-05-31T09:05:37;28.60;;;5.28;;
75737;SDS011;64356;45.638;13.764;2023-05-31T09:08:03;12.80;;;5.70;;
75737;SDS011;64356;45.638;13.764;2023-05-31T09:10:29;10.88;;;4.88;;
75737;SDS011;64356;45.638;13.764;2023-05-31T09:12:56;9.30;;;4.80;;
75737;SDS011;64356;45.638;13.764;2023-05-31T09:15:23;15.23;;;5.20;;
75737;SDS011;64356;45.638;13.764;2023-05-31T09:17:49;16.08;;;4.78;;
75737;SDS011;64356;45.638;13.764;2023-05-31T09:20:16;7.45;;;5.00;;
75737;SDS011;64356;45.638;13.764;2023-05-31T09:22:46;10.82;;;4.25;;
75737;SDS011;64356;45.638;13.764;2023-05-31T09:25:13;17.00;;;5.47;;
75737;SDS011;64356;45.638;13.764;2023-05-31T09:27:40;12.48;;;5.38;;
75737;SDS011;64356;45.638;13.764;2023-05-31T09:30:12;13.95;;;4.97;;
75737;SDS011;64356;45.638;13.764;2023-05-31T09:32:39;10.50;;;5.32;;
75737;SDS011;64356;45.638;13.764;2023-05-31T09:35:12;13.07;;;4.90;;
75737;SDS011;64356;45.638;13.764;2023-05-31T09:37:45;10.18;;;5.07;;
75737;SDS011;64356;45.638;13.764;2023-05-31T09:40:13;14.90;;;4.65;;
75737;SDS011;64356;45.638;13.764;2023-05-31T09:42:50;9.27;;;5.03;;
75737;SDS011;64356;45.638;13.764;2023-05-31T09:45:17;13.70;;;5.40;;
75737;SDS011;64356;45.638;13.764;2023-05-31T09:47:44;7.47;;;4.68;;
75737;SDS011;64356;45.638;13.764;2023-05-31T09:50:20;24.95;;;5.43;;
75737;SDS011;64356;45.638;13.764;2023-05-31T09:52:47;25.92;;;5.47;;
75737;SDS011;64356;45.638;13.764;2023-05-31T09:55:15;36.15;;;6.18;;
75737;SDS011;64356;45.638;13.764;2023-05-31T09:57:42;23.58;;;6.20;;
75737;SDS011;64356;45.638;13.764;2023-05-31T10:00:15;43.72;;;6.90;;
75737;SDS011;64356;45.638;13.764;2023-05-31T10:02:49;30.38;;;6.05;;
75737;SDS011;64356;45.638;13.764;2023-05-31T10:05:17;27.27;;;6.10;;
75737;SDS011;64356;45.638;13.764;2023-05-31T10:07:45;20.08;;;5.88;;
75737;SDS011;64356;45.638;13.764;2023-05-31T10:10:12;19.27;;;5.68;;
75737;SDS011;64356;45.638;13.764;2023-05-31T10:12:47;15.15;;;5.20;;
75737;SDS011;64356;45.638;13.764;2023-05-31T10:15:23;27.38;;;5.57;;
75737;SDS011;64356;45.638;13.764;2023-05-31T10:20:21;18.25;;;6.38;;
75737;SDS011;64356;45.638;13.764;2023-05-31T10:22:49;15.90;;;5.90;;
75737;SDS011;64356;45.638;13.764;2023-05-31T10:25:30;20.80;;;6.20;;
75737;SDS011;64356;45.638;13.764;2023-05-31T10:30:31;21.73;;;5.90;;
75737;SDS011;64356;45.638;13.764;2023-05-31T10:33:05;21.30;;;5.97;;
75737;SDS011;64356;45.638;13.764;2023-05-31T10:35:32;12.27;;;4.63;;
75737;SDS011;64356;45.638;13.764;2023-05-31T10:37:59;22.65;;;5.70;;
75737;SDS011;64356;45.638;13.764;2023-05-31T10:40:30;10.82;;;5.28;;
75737;SDS011;64356;45.638;13.764;2023-05-31T10:46:06;10.57;;;5.70;;
75737;SDS011;64356;45.638;13.764;2023-05-31T10:48:39;7.18;;;5.55;;
75737;SDS011;64356;45.638;13.764;2023-05-31T10:51:21;11.70;;;5.88;;
75737;SDS011;64356;45.638;13.764;2023-05-31T10:54:06;8.20;;;5.68;;
75737;SDS011;64356;45.638;13.764;2023-05-31T10:56:32;15.35;;;5.85;;
75737;SDS011;64356;45.638;13.764;2023-05-31T10:59:01;29.15;;;6.72;;
75737;SDS011;64356;45.638;13.764;2023-05-31T11:01:29;25.80;;;7.10;;
75737;SDS011;64356;45.638;13.764;2023-05-31T11:03:55;16.33;;;6.28;;
75737;SDS011;64356;45.638;13.764;2023-05-31T11:08:59;19.77;;;5.55;;
75737;SDS011;64356;45.638;13.764;2023-05-31T11:14:08;12.63;;;6.20;;
75737;SDS011;64356;45.638;13.764;2023-05-31T11:19:14;11.85;;;6.00;;
75737;SDS011;64356;45.638;13.764;2023-05-31T11:22:14;13.90;;;5.95;;
75737;SDS011;64356;45.638;13.764;2023-05-31T11:27:04;9.02;;;6.25;;
75737;SDS011;64356;45.638;13.764;2023-05-31T11:35:04;29.45;;;7.00;;
75737;SDS011;64356;45.638;13.764;2023-05-31T11:37:37;9.75;;;6.47;;
75737;SDS011;64356;45.638;13.764;2023-05-31T11:40:07;28.52;;;6.70;;
75737;SDS011;64356;45.638;13.764;2023-05-31T11:45:04;17.67;;;6.30;;
75737;SDS011;64356;45.638;13.764;2023-05-31T11:47:38;14.57;;;6.63;;
75737;SDS011;64356;45.638;13.764;2023-05-31T11:50:23;28.30;;;7.22;;
75737;SDS011;64356;45.638;13.764;2023-05-31T11:52:50;55.13;;;8.48;;
75737;SDS011;64356;45.638;13.764;2023-05-31T11:55:19;39.65;;;6.85;;
75737;SDS011;64356;45.638;13.764;2023-05-31T11:57:46;40.80;;;7.72;;
75737;SDS011;64356;45.638;13.764;2023-05-31T12:00:17;50.63;;;7.57;;
75737;SDS011;64356;45.638;13.764;2023-05-31T12:02:48;15.88;;;5.90;;
75737;SDS011;64356;45.638;13.764;2023-05-31T12:05:21;19.77;;;5.78;;
75737;SDS011;64356;45.638;13.764;2023-05-31T12:07:47;13.25;;;6.38;;
75737;SDS011;64356;45.638;13.764;2023-05-31T12:10:17;16.90;;;5.55;;
75737;SDS011;64356;45.638;13.764;2023-05-31T12:12:42;19.23;;;5.88;;
75737;SDS011;64356;45.638;13.764;2023-05-31T12:15:11;19.60;;;7.25;;
75737;SDS011;64356;45.638;13.764;2023-05-31T12:17:37;31.70;;;6.38;;
75737;SDS011;64356;45.638;13.764;2023-05-31T12:20:04;18.77;;;6.18;;
75737;SDS011;64356;45.638;13.764;2023-05-31T12:22:30;15.88;;;6.00;;
75737;SDS011;64356;45.638;13.764;2023-05-31T12:24:56;24.10;;;6.47;;
75737;SDS011;64356;45.638;13.764;2023-05-31T12:27:23;21.08;;;6.45;;
75737;SDS011;64356;45.638;13.764;2023-05-31T12:29:56;15.05;;;5.97;;
75737;SDS011;64356;45.638;13.764;2023-05-31T12:32:23;18.67;;;6.53;;
75737;SDS011;64356;45.638;13.764;2023-05-31T12:35:06;17.85;;;6.82;;
75737;SDS011;64356;45.638;13.764;2023-05-31T12:37:37;13.82;;;6.85;;
75737;SDS011;64356;45.638;13.764;2023-05-31T12:40:10;11.52;;;5.90;;
75737;SDS011;64356;45.638;13.764;2023-05-31T12:42:38;14.20;;;6.65;;
75737;SDS011;64356;45.638;13.764;2023-05-31T12:45:07;13.93;;;6.25;;
75737;SDS011;64356;45.638;13.764;2023-05-31T12:47:33;14.25;;;6.63;;
75737;SDS011;64356;45.638;13.764;2023-05-31T12:50:04;14.52;;;5.80;;
75737;SDS011;64356;45.638;13.764;2023-05-31T12:52:35;10.32;;;6.60;;
75737;SDS011;64356;45.638;13.764;2023-05-31T12:55:04;13.02;;;5.80;;
75737;SDS011;64356;45.638;13.764;2023-05-31T12:57:33;11.13;;;6.00;;
75737;SDS011;64356;45.638;13.764;2023-05-31T13:00:03;19.13;;;5.85;;
75737;SDS011;64356;45.638;13.764;2023-05-31T13:02:34;14.60;;;5.90;;
75737;SDS011;64356;45.638;13.764;2023-05-31T13:05:00;26.15;;;5.93;;
75737;SDS011;64356;45.638;13.764;2023-05-31T13:07:25;8.25;;;5.60;;
75737;SDS011;64356;45.638;13.764;2023-05-31T13:09:51;8.30;;;5.20;;
75737;SDS011;64356;45.638;13.764;2023-05-31T13:12:17;8.18;;;5.60;;
75737;SDS011;64356;45.638;13.764;2023-05-31T13:14:44;11.77;;;6.43;;
75737;SDS011;64356;45.638;13.764;2023-05-31T13:17:10;25.27;;;6.25;;
75737;SDS011;64356;45.638;13.764;2023-05-31T13:19:36;21.60;;;6.60;;
75737;SDS011;64356;45.638;13.764;2023-05-31T13:22:02;12.02;;;6.05;;
75737;SDS011;64356;45.638;13.764;2023-05-31T13:24:28;11.27;;;5.90;;
75737;SDS011;64356;45.638;13.764;2023-05-31T13:26:53;14.82;;;6.47;;
75737;SDS011;64356;45.638;13.764;2023-05-31T13:29:19;13.70;;;5.10;;
75737;SDS011;64356;45.638;13.764;2023-05-31T13:31:47;12.18;;;5.30;;
75737;SDS011;64356;45.638;13.764;2023-05-31T13:34:16;13.88;;;6.68;;
75737;SDS011;64356;45.638;13.764;2023-05-31T13:36:43;14.52;;;5.45;;
75737;SDS011;64356;45.638;13.764;2023-05-31T13:39:09;11.05;;;6.03;;
75737;SDS011;64356;45.638;13.764;2023-05-31T13:41:38;10.20;;;5.05;;
75737;SDS011;64356;45.638;13.764;2023-05-31T13:44:04;20.58;;;5.10;;
75737;SDS011;64356;45.638;13.764;2023-05-31T13:46:30;10.82;;;5.40;;
75737;SDS011;64356;45.638;13.764;2023-05-31T13:48:55;10.00;;;5.20;;
75737;SDS011;64356;45.638;13.764;2023-05-31T13:51:21;7.47;;;4.85;;
75737;SDS011;64356;45.638;13.764;2023-05-31T13:53:47;17.63;;;5.47;;
75737;SDS011;64356;45.638;13.764;2023-05-31T13:56:13;9.30;;;5.43;;
75737;SDS011;64356;45.638;13.764;2023-05-31T13:58:38;11.20;;;5.03;;
75737;SDS011;64356;45.638;13.764;2023-05-31T14:01:04;8.40;;;4.90;;
75737;SDS011;64356;45.638;13.764;2023-05-31T14:03:32;17.20;;;5.72;;
75737;SDS011;64356;45.638;13.764;2023-05-31T14:05:58;11.43;;;5.07;;
75737;SDS011;64356;45.638;13.764;2023-05-31T14:08:24;9.20;;;4.90;;
75737;SDS011;64356;45.638;13.764;2023-05-31T14:10:51;13.77;;;5.15;;
75737;SDS011;64356;45.638;13.764;2023-05-31T14:13:17;13.10;;;5.88;;
75737;SDS011;64356;45.638;13.764;2023-05-31T14:15:43;21.27;;;6.43;;
75737;SDS011;64356;45.638;13.764;2023-05-31T14:18:09;39.97;;;6.43;;
75737;SDS011;64356;45.638;13.764;2023-05-31T14:20:35;14.63;;;6.38;;
75737;SDS011;64356;45.638;13.764;2023-05-31T14:23:02;15.63;;;5.57;;
75737;SDS011;64356;45.638;13.764;2023-05-31T14:25:28;13.10;;;6.15;;
75737;SDS011;64356;45.638;13.764;2023-05-31T14:27:54;8.60;;;5.35;;
75737;SDS011;64356;45.638;13.764;2023-05-31T14:30:20;10.40;;;4.88;;
75737;SDS011;64356;45.638;13.764;2023-05-31T14:32:45;25.73;;;5.65;;
75737;SDS011;64356;45.638;13.764;2023-05-31T14:35:11;13.43;;;5.32;;
75737;SDS011;64356;45.638;13.764;2023-05-31T14:37:38;18.00;;;5.40;;
75737;SDS011;64356;45.638;13.764;2023-05-31T14:40:04;8.40;;;4.97;;
75737;SDS011;64356;45.638;13.764;2023-05-31T14:42:30;8.25;;;5.55;;
75737;SDS011;64356;45.638;13.764;2023-05-31T14:44:56;14.15;;;5.10;;
75737;SDS011;64356;45.638;13.764;2023-05-31T14:47:22;8.93;;;5.78;;
75737;SDS011;64356;45.638;13.764;2023-05-31T14:49:47;11.38;;;5.25;;
75737;SDS011;64356;45.638;13.764;2023-05-31T14:52:13;8.23;;;5.35;;
75737;SDS011;64356;45.638;13.764;2023-05-31T14:54:39;10.82;;;5.30;;
75737;SDS011;64356;45.638;13.764;2023-05-31T14:57:05;8.52;;;4.53;;
75737;SDS011;64356;45.638;13.764;2023-05-31T14:59:31;7.72;;;5.55;;
75737;SDS011;64356;45.638;13.764;2023-05-31T15:01:57;7.70;;;5.90;;
75737;SDS011;64356;45.638;13.764;2023-05-31T15:04:24;6.47;;;4.57;;
75737;SDS011;64356;45.638;13.764;2023-05-31T15:06:51;17.55;;;5.13;;